createdAt,value
2022-12-18T00:00:14.036Z,19.23
2022-12-18T00:06:06.375Z,20.30
2022-12-18T00:11:58.675Z,18.03
2022-12-18T00:17:51.269Z,16.85
2022-12-18T00:23:45.145Z,15.70
2022-12-18T00:29:37.615Z,14.95
2022-12-18T00:35:30.508Z,17.48
2022-12-18T00:41:41.705Z,15.80
2022-12-18T00:47:34.727Z,14.98
2022-12-18T00:53:27.436Z,14.60
2022-12-18T00:59:20.197Z,13.47
2022-12-18T01:05:14.525Z,15.00
2022-12-18T01:11:11.522Z,13.45
2022-12-18T01:17:04.893Z,13.98
2022-12-18T01:22:58.456Z,15.02
2022-12-18T01:28:51.676Z,14.73
2022-12-18T01:34:43.807Z,13.32
2022-12-18T01:40:36.467Z,12.77
2022-12-18T01:46:29.056Z,13.93
2022-12-18T01:52:25.107Z,14.13
2022-12-18T01:58:18.960Z,14.20
2022-12-18T02:04:24.747Z,14.00
2022-12-18T02:10:26.896Z,14.00
2022-12-18T02:16:46.078Z,14.90
2022-12-18T02:23:09.695Z,14.15
2022-12-18T02:29:14.276Z,13.03
2022-12-18T02:35:14.277Z,12.90
2022-12-18T02:41:07.509Z,14.05
2022-12-18T02:47:01.736Z,13.57
2022-12-18T02:53:25.540Z,14.43
2022-12-18T02:59:35.495Z,14.73
2022-12-18T03:05:38.446Z,13.93
2022-12-18T03:11:54.095Z,13.45
2022-12-18T03:18:00.669Z,13.90
2022-12-18T03:23:56.735Z,14.25
2022-12-18T03:30:08.404Z,12.88
2022-12-18T03:36:03.335Z,15.15
2022-12-18T03:42:19.625Z,14.40
2022-12-18T03:48:40.646Z,14.88
2022-12-18T03:54:37.836Z,15.00
2022-12-18T04:00:38.694Z,15.25
2022-12-18T04:06:38.655Z,14.52
2022-12-18T04:12:31.427Z,14.32
2022-12-18T04:18:24.675Z,14.38
2022-12-18T04:24:18.169Z,16.17
2022-12-18T04:30:19.755Z,15.52
2022-12-18T04:36:13.603Z,16.00
2022-12-18T04:42:07.045Z,16.58
2022-12-18T04:53:53.316Z,15.43
2022-12-18T04:59:46.318Z,15.43
2022-12-18T05:05:39.424Z,15.05
2022-12-18T05:11:33.175Z,16.00
2022-12-18T05:17:28.045Z,15.82
2022-12-18T05:23:21.712Z,17.13
2022-12-18T05:29:14.434Z,17.63
2022-12-18T05:35:08.473Z,17.48
2022-12-18T05:41:03.270Z,17.02
2022-12-18T05:46:55.423Z,18.40
2022-12-18T05:52:48.475Z,18.90
2022-12-18T05:58:41.834Z,21.80
2022-12-18T06:10:27.500Z,24.80
2022-12-18T06:16:20.491Z,24.75
2022-12-18T06:22:13.503Z,24.55
2022-12-18T06:28:06.643Z,23.02
2022-12-18T06:39:51.474Z,23.92
2022-12-18T06:45:44.484Z,22.48
2022-12-18T06:51:36.963Z,25.43
2022-12-18T06:57:29.254Z,24.50
2022-12-18T07:03:21.284Z,24.98
2022-12-18T07:09:13.427Z,25.93
2022-12-18T07:15:06.214Z,23.40
2022-12-18T07:20:58.554Z,26.05
2022-12-18T07:26:50.744Z,25.13
2022-12-18T07:32:43.624Z,23.05
2022-12-18T07:38:36.944Z,20.58
2022-12-18T07:44:29.552Z,19.75
2022-12-18T07:50:21.554Z,21.27
2022-12-18T07:56:31.394Z,21.27
2022-12-18T08:02:23.902Z,22.10
2022-12-18T08:08:16.266Z,16.30
2022-12-18T08:14:10.046Z,19.75
2022-12-18T08:20:03.171Z,19.05
2022-12-18T08:25:59.346Z,17.48
2022-12-18T08:31:51.515Z,16.90
2022-12-18T08:37:44.204Z,20.50
2022-12-18T08:43:55.310Z,20.43
2022-12-18T08:49:49.086Z,20.93
2022-12-18T08:55:43.574Z,20.38
2022-12-18T09:01:39.959Z,19.50
2022-12-18T09:07:32.650Z,21.75
2022-12-18T09:13:24.725Z,18.05
2022-12-18T09:19:18.040Z,19.85
2022-12-18T09:25:11.116Z,19.02
2022-12-18T09:31:08.981Z,18.55
2022-12-18T09:37:05.976Z,20.05
2022-12-18T09:43:05.398Z,20.88
2022-12-18T09:49:04.704Z,18.15
2022-12-18T09:55:25.471Z,20.77
2022-12-18T10:01:24.133Z,20.75
2022-12-18T10:07:51.235Z,22.13
2022-12-18T10:13:53.736Z,16.77
2022-12-18T10:19:57.716Z,17.37
2022-12-18T10:25:56.209Z,22.90
2022-12-18T10:31:48.704Z,21.63
2022-12-18T10:38:04.785Z,20.47
2022-12-18T10:44:13.439Z,22.48
2022-12-18T10:50:06.643Z,25.15
2022-12-18T10:56:00.762Z,21.70
2022-12-18T11:02:03.077Z,25.55
2022-12-18T11:07:56.166Z,22.67
2022-12-18T11:14:19.339Z,21.80
2022-12-18T11:20:37.183Z,17.02
2022-12-18T11:26:37.504Z,17.40
2022-12-18T11:32:38.423Z,17.17
2022-12-18T11:38:31.882Z,16.80
2022-12-18T11:44:29.774Z,15.07
2022-12-18T11:50:43.953Z,22.63
2022-12-18T11:56:45.610Z,14.82
2022-12-18T12:02:53.313Z,24.17
2022-12-18T12:09:09.047Z,22.83
2022-12-18T12:15:24.734Z,23.40
2022-12-18T12:21:37.087Z,23.13
2022-12-18T12:27:55.595Z,21.25
2022-12-18T12:34:12.669Z,16.23
2022-12-18T12:40:26.728Z,23.48
2022-12-18T12:46:22.885Z,25.37
2022-12-18T12:52:45.575Z,23.55
2022-12-18T12:59:02.830Z,19.75
2022-12-18T13:05:11.886Z,18.95
2022-12-18T13:11:23.260Z,25.60
2022-12-18T13:17:21.228Z,26.23
2022-12-18T13:23:27.835Z,26.48
2022-12-18T13:29:42.449Z,18.25
2022-12-18T13:35:41.404Z,26.90
2022-12-18T13:41:33.518Z,23.35
2022-12-18T13:47:38.878Z,29.83
2022-12-18T13:53:55.839Z,18.42
2022-12-18T13:59:48.777Z,17.45
2022-12-18T14:05:43.383Z,25.90
2022-12-18T14:11:38.720Z,25.42
2022-12-18T14:17:33.208Z,20.33
2022-12-18T14:23:38.773Z,29.17
2022-12-18T14:29:32.498Z,19.42
2022-12-18T14:35:25.854Z,23.13
2022-12-18T14:41:21.051Z,21.10
2022-12-18T14:47:17.980Z,26.20
2022-12-18T14:53:24.271Z,17.65
2022-12-18T14:59:25.206Z,22.77
2022-12-18T15:05:22.926Z,29.35
2022-12-18T15:11:38.198Z,28.25
2022-12-18T15:17:32.664Z,20.77
2022-12-18T15:23:37.336Z,26.05
2022-12-18T15:29:30.753Z,23.00
2022-12-18T15:35:25.306Z,25.13
2022-12-18T15:41:24.542Z,22.65
2022-12-18T15:47:17.505Z,25.70
2022-12-18T15:53:10.318Z,28.93
2022-12-18T15:59:04.251Z,24.58
2022-12-18T16:04:58.387Z,34.88
2022-12-18T16:10:51.077Z,27.60
2022-12-18T16:16:44.276Z,30.30
2022-12-18T16:22:36.839Z,29.15
2022-12-18T16:28:28.557Z,32.22
2022-12-18T16:34:29.873Z,35.72
2022-12-18T16:40:22.977Z,39.45
2022-12-18T16:46:15.940Z,33.25
2022-12-18T16:52:09.479Z,17.23
2022-12-18T16:58:03.513Z,35.03
2022-12-18T17:03:58.156Z,31.00
2022-12-18T17:09:51.496Z,21.35
2022-12-18T17:15:45.264Z,29.45
2022-12-18T17:21:38.353Z,34.47
2022-12-18T17:27:32.314Z,29.63
2022-12-18T17:39:19.594Z,32.63
2022-12-18T17:45:12.016Z,31.83
2022-12-18T17:51:06.491Z,18.63
2022-12-18T17:56:58.846Z,33.67
2022-12-18T18:02:51.246Z,33.00
2022-12-18T18:08:44.378Z,39.38
2022-12-18T18:14:36.855Z,25.27
2022-12-18T18:20:30.735Z,23.65
2022-12-18T18:26:23.489Z,24.23
2022-12-18T18:32:19.257Z,27.05
2022-12-18T18:38:12.205Z,28.42
2022-12-18T18:44:05.995Z,35.30
2022-12-18T18:49:58.371Z,32.08
2022-12-18T18:56:17.237Z,43.72
2022-12-18T19:02:07.103Z,41.13
2022-12-18T19:08:00.531Z,34.60
2022-12-18T19:13:55.566Z,28.98
2022-12-18T19:19:52.264Z,40.42
2022-12-18T19:25:45.415Z,34.63
2022-12-18T19:31:42.006Z,41.67
2022-12-18T19:37:37.317Z,24.80
2022-12-18T19:43:30.657Z,33.10
2022-12-18T19:49:27.207Z,34.00
2022-12-18T19:55:22.669Z,29.52
2022-12-18T20:01:19.031Z,32.10
2022-12-18T20:07:15.176Z,34.58
2022-12-18T20:13:13.687Z,39.63
2022-12-18T20:19:12.065Z,34.53
2022-12-18T20:25:11.064Z,38.05
2022-12-18T20:31:10.586Z,36.65
2022-12-18T20:37:07.895Z,31.00
2022-12-18T20:43:04.116Z,41.25
2022-12-18T20:48:57.196Z,38.53
2022-12-18T20:54:50.909Z,37.53
2022-12-18T21:00:44.666Z,38.65
2022-12-18T21:06:42.024Z,37.60
2022-12-18T21:12:42.742Z,41.53
2022-12-18T21:18:41.326Z,36.15
2022-12-18T21:24:34.075Z,39.72
2022-12-18T21:30:27.625Z,39.42
2022-12-18T21:36:19.814Z,32.53
2022-12-18T21:42:31.636Z,32.22
2022-12-18T21:48:24.510Z,36.17
2022-12-18T21:54:17.612Z,36.80
2022-12-18T22:00:18.963Z,31.80
2022-12-18T22:06:13.289Z,32.63
2022-12-18T22:12:06.246Z,31.73
2022-12-18T22:18:00.432Z,29.08
2022-12-18T22:23:58.901Z,30.73
2022-12-18T22:30:06.757Z,44.05
2022-12-18T22:35:58.245Z,47.15
2022-12-18T22:41:51.433Z,44.75
2022-12-18T22:47:44.682Z,51.67
2022-12-18T22:53:36.813Z,34.05
2022-12-18T22:59:29.682Z,34.00
2022-12-18T23:05:21.936Z,41.03
2022-12-18T23:11:18.048Z,32.42
2022-12-18T23:17:10.357Z,50.63
2022-12-18T23:34:49.778Z,52.15
2022-12-18T23:40:41.937Z,39.13
2022-12-18T23:46:37.844Z,53.85
2022-12-18T23:52:29.989Z,52.25
2022-12-18T23:58:23.668Z,56.88
